Time;durP1;ratioP1;P1;durP2;ratioP2;P2;SDS_P1;SDS_P2;PMS_P1;PMS_P2;Temp;Humidity;BMP_temperature;BMP_pressure;BME280_temperature;BME280_humidity;BME280_pressure;Samples;Min_cycle;Max_cycle;Signal;HPM_P1;HPM_P2
2022/08/14 00:00:44;;;;;;;9.10;4.50;;;23.60;99.90;;;;;;5053374;28;20189;-51
2022/08/14 00:03:30;;;;;;;18.15;4.45;;;23.60;99.90;;;;;;5054089;28;20178;-52
2022/08/14 00:05:58;;;;;;;10.18;4.22;;;23.50;99.90;;;;;;5056644;28;20195;-52
2022/08/14 00:08:25;;;;;;;11.10;3.90;;;23.50;99.90;;;;;;5064623;28;20217;-52
2022/08/14 00:10:51;;;;;;;10.63;4.18;;;23.50;99.90;;;;;;5053997;28;20648;-53
2022/08/14 00:13:19;;;;;;;10.40;3.88;;;23.50;99.90;;;;;;5057467;28;20184;-53
2022/08/14 00:15:48;;;;;;;8.80;3.58;;;23.50;99.90;;;;;;5059280;28;20643;-52
2022/08/14 00:18:17;;;;;;;8.85;3.90;;;23.40;99.90;;;;;;5059344;28;20267;-53
2022/08/14 00:20:43;;;;;;;12.27;4.05;;;23.30;99.90;;;;;;5059036;28;20177;-53
2022/08/14 00:23:11;;;;;;;12.18;3.80;;;23.30;99.90;;;;;;5054289;28;20526;-53
2022/08/14 00:25:38;;;;;;;10.70;3.60;;;23.30;99.90;;;;;;5053646;28;20284;-53
2022/08/14 00:28:06;;;;;;;12.02;3.70;;;23.20;99.90;;;;;;5057766;28;20212;-52
2022/08/14 00:30:32;;;;;;;9.05;4.20;;;23.10;99.90;;;;;;5058002;28;20181;-52
2022/08/14 00:32:58;;;;;;;5.22;3.53;;;23.10;99.90;;;;;;5050158;28;20192;-53
2022/08/14 00:35:23;;;;;;;7.55;3.05;;;23.00;99.90;;;;;;5044801;28;20204;-52
2022/08/14 00:37:49;;;;;;;12.85;3.22;;;22.80;99.90;;;;;;5040774;28;20233;-53
2022/08/14 00:40:17;;;;;;;10.48;3.55;;;22.70;99.90;;;;;;5047568;28;20260;-51
2022/08/14 00:42:43;;;;;;;13.15;4.30;;;22.50;99.90;;;;;;5047473;28;20173;-53
2022/08/14 00:45:12;;;;;;;8.25;3.90;;;22.50;99.90;;;;;;5044580;28;20184;-52
2022/08/14 00:47:39;;;;;;;13.63;4.10;;;22.40;99.90;;;;;;5051603;28;20193;-51
2022/08/14 00:50:08;;;;;;;17.55;4.25;;;22.30;99.90;;;;;;5053129;28;20169;-50
2022/08/14 00:52:34;;;;;;;14.38;4.32;;;21.90;99.90;;;;;;5042223;28;20277;-51
2022/08/14 00:55:01;;;;;;;12.48;4.38;;;22.10;99.90;;;;;;5041557;28;20719;-50
2022/08/14 00:57:30;;;;;;;9.35;3.72;;;22.00;99.90;;;;;;5033054;28;20265;-53
2022/08/14 00:59:57;;;;;;;16.58;4.10;;;21.90;99.90;;;;;;5050600;28;20667;-53
2022/08/14 01:02:24;;;;;;;16.50;3.90;;;22.00;99.90;;;;;;5050779;28;20209;-52
2022/08/14 01:04:58;;;;;;;10.30;4.00;;;21.90;99.90;;;;;;5047432;28;20200;-52
2022/08/14 01:07:25;;;;;;;15.45;4.68;;;21.90;99.90;;;;;;5051791;28;20232;-52
2022/08/14 01:10:04;;;;;;;15.75;4.60;;;21.80;99.90;;;;;;5049798;28;20231;-52
2022/08/14 01:12:31;;;;;;;8.15;3.88;;;21.80;99.90;;;;;;5051019;28;20169;-52
2022/08/14 01:14:58;;;;;;;12.93;4.25;;;21.70;99.90;;;;;;5049909;28;20659;-53
2022/08/14 01:21:02;;;;;;;12.63;4.03;;;21.70;99.90;;;;;;5050826;28;20165;-53
2022/08/14 01:22:59;;;;;;;10.13;4.30;;;21.50;99.90;;;;;;5049620;28;20231;-52
2022/08/14 01:25:25;;;;;;;12.30;4.22;;;21.40;99.90;;;;;;5050637;28;20201;-51
2022/08/14 01:27:54;;;;;;;14.90;4.63;;;21.40;99.90;;;;;;5050010;28;20224;-52
2022/08/14 01:30:22;;;;;;;13.63;3.97;;;21.40;99.90;;;;;;5050589;28;20185;-51
2022/08/14 01:32:49;;;;;;;17.52;4.72;;;21.40;99.90;;;;;;5052333;28;20184;-50
2022/08/14 01:35:16;;;;;;;17.63;4.68;;;21.40;99.90;;;;;;5051240;28;20177;-52
2022/08/14 01:37:47;;;;;;;18.65;4.80;;;21.40;99.90;;;;;;5047346;28;20224;-50
2022/08/14 01:40:13;;;;;;;14.20;4.25;;;21.30;99.90;;;;;;5050380;28;20180;-50
2022/08/14 01:42:41;;;;;;;11.73;4.40;;;21.30;99.90;;;;;;5050876;28;20173;-52
2022/08/14 01:45:11;;;;;;;12.98;4.60;;;21.30;99.90;;;;;;5051896;28;20201;-51
2022/08/14 01:47:37;;;;;;;12.15;4.35;;;21.30;99.90;;;;;;5050086;28;20667;-51
2022/08/14 01:50:06;;;;;;;9.48;4.30;;;21.30;99.90;;;;;;5051658;28;20189;-51
2022/08/14 01:52:35;;;;;;;13.43;4.20;;;21.30;99.90;;;;;;5050971;28;20185;-51
2022/08/14 01:55:04;;;;;;;14.55;4.45;;;21.20;99.90;;;;;;5050866;28;20181;-51
2022/08/14 01:57:32;;;;;;;14.82;4.60;;;21.10;99.90;;;;;;5051001;28;20248;-50
2022/08/14 01:59:57;;;;;;;10.70;4.70;;;21.00;99.90;;;;;;5050970;28;20181;-51
2022/08/14 02:02:23;;;;;;;10.90;4.40;;;20.90;99.90;;;;;;5048329;28;20670;-50
2022/08/14 02:04:49;;;;;;;9.25;4.60;;;20.90;99.90;;;;;;5049014;28;20208;-51
2022/08/14 02:07:14;;;;;;;14.45;4.70;;;20.90;99.90;;;;;;5051822;28;20959;-51
2022/08/14 02:09:41;;;;;;;8.85;4.72;;;20.90;99.90;;;;;;5051454;28;20659;-51
2022/08/14 02:12:08;;;;;;;12.18;4.40;;;20.90;99.90;;;;;;5049888;28;20185;-51
2022/08/14 02:14:34;;;;;;;13.18;4.70;;;20.90;99.90;;;;;;5049771;28;20231;-51
2022/08/14 02:17:00;;;;;;;6.75;4.22;;;20.90;99.90;;;;;;5050515;28;20169;-51
2022/08/14 02:19:29;;;;;;;15.27;4.60;;;20.80;99.90;;;;;;5050368;28;20185;-51
2022/08/14 02:21:58;;;;;;;16.75;4.63;;;20.70;99.90;;;;;;5051237;28;20192;-51
2022/08/14 02:24:28;;;;;;;11.73;4.40;;;20.60;99.90;;;;;;5048776;28;20237;-50
2022/08/14 02:26:56;;;;;;;12.13;4.47;;;20.50;99.90;;;;;;5050139;28;20174;-52
2022/08/14 02:29:24;;;;;;;9.05;4.68;;;20.40;99.90;;;;;;5050953;28;20705;-51
2022/08/14 02:31:52;;;;;;;15.98;4.70;;;20.40;99.90;;;;;;5050348;28;20185;-50
2022/08/14 02:34:24;;;;;;;10.65;4.00;;;20.40;99.90;;;;;;5049235;28;20645;-51
2022/08/14 02:36:52;;;;;;;12.02;4.55;;;20.40;99.90;;;;;;5049335;28;20699;-51
2022/08/14 02:39:18;;;;;;;11.68;4.25;;;20.40;99.90;;;;;;5049845;28;20179;-51
2022/08/14 02:41:51;;;;;;;7.43;4.13;;;20.40;99.90;;;;;;5049782;28;20192;-51
2022/08/14 02:44:21;;;;;;;7.47;4.47;;;20.50;99.90;;;;;;5047698;28;20219;-51
2022/08/14 02:46:49;;;;;;;14.10;4.10;;;20.50;99.90;;;;;;5038515;28;20713;-50
2022/08/14 02:49:15;;;;;;;13.02;4.63;;;20.50;99.90;;;;;;5039151;28;20656;-50
2022/08/14 02:51:41;;;;;;;6.72;3.95;;;20.50;99.90;;;;;;5041054;28;20177;-51
2022/08/14 02:54:08;;;;;;;7.97;4.15;;;20.50;99.90;;;;;;5038669;28;20178;-52
2022/08/14 02:56:37;;;;;;;8.95;4.53;;;20.50;99.90;;;;;;5040949;28;20185;-50
2022/08/14 02:59:05;;;;;;;7.30;4.13;;;20.50;99.90;;;;;;5037082;28;20316;-51
2022/08/14 03:01:31;;;;;;;11.32;4.22;;;20.50;99.90;;;;;;5038670;28;20190;-50
2022/08/14 03:03:57;;;;;;;7.68;4.25;;;20.40;99.90;;;;;;5038779;28;20537;-51
2022/08/14 03:06:23;;;;;;;10.82;4.55;;;20.40;99.90;;;;;;5040154;28;20165;-51
2022/08/14 03:08:51;;;;;;;11.50;4.82;;;20.50;99.90;;;;;;5037822;28;20300;-51
2022/08/14 03:11:17;;;;;;;15.95;4.43;;;20.50;99.90;;;;;;5040211;28;20200;-50
2022/08/14 03:13:46;;;;;;;6.85;3.70;;;20.50;99.90;;;;;;5038671;28;20189;-51
2022/08/14 03:16:14;;;;;;;9.13;3.90;;;20.50;99.90;;;;;;5041782;28;20181;-52
2022/08/14 03:18:42;;;;;;;8.02;4.43;;;20.50;99.90;;;;;;5039017;28;20259;-51
2022/08/14 03:21:12;;;;;;;7.90;4.13;;;20.50;99.90;;;;;;5039700;28;20174;-52
2022/08/14 03:23:39;;;;;;;10.65;4.50;;;20.60;99.90;;;;;;5040167;28;20204;-50
2022/08/14 03:26:16;;;;;;;9.15;4.35;;;20.60;99.90;;;;;;5041054;28;20177;-50
2022/08/14 03:28:45;;;;;;;6.47;3.92;;;20.40;99.90;;;;;;5040987;28;20201;-51
2022/08/14 03:31:11;;;;;;;6.65;3.78;;;20.30;99.90;;;;;;5039600;28;20189;-52
2022/08/14 03:33:38;;;;;;;8.82;3.97;;;20.10;99.90;;;;;;5046609;28;20177;-52
2022/08/14 03:36:15;;;;;;;9.32;4.30;;;20.10;99.90;;;;;;5037452;28;20236;-52
2022/08/14 03:38:42;;;;;;;10.73;4.38;;;20.00;99.90;;;;;;5038164;28;20219;-51
2022/08/14 03:41:13;;;;;;;9.88;3.92;;;19.90;99.90;;;;;;5038565;28;20575;-51
2022/08/14 03:43:40;;;;;;;7.78;4.28;;;19.70;99.90;;;;;;5038692;28;20197;-50
2022/08/14 03:46:06;;;;;;;11.55;4.32;;;;;;;;;;5039703;28;20185;-51
2022/08/14 03:48:31;;;;;;;14.38;4.22;;;19.30;99.90;;;;;;5038987;28;20261;-51
2022/08/14 03:50:58;;;;;;;6.18;4.18;;;19.40;99.90;;;;;;5038340;28;20189;-51
2022/08/14 03:53:25;;;;;;;12.43;4.45;;;19.40;99.90;;;;;;5037884;28;20199;-52
2022/08/14 03:55:55;;;;;;;7.95;4.55;;;19.40;99.90;;;;;;5040350;28;20205;-52
2022/08/14 03:58:21;;;;;;;7.75;4.18;;;19.40;99.90;;;;;;5038106;28;20236;-52
2022/08/14 04:00:47;;;;;;;7.28;4.28;;;19.40;99.90;;;;;;5041125;28;20177;-52
2022/08/14 04:03:13;;;;;;;6.47;4.03;;;19.40;99.90;;;;;;5038112;28;20208;-51
2022/08/14 04:05:41;;;;;;;7.35;4.32;;;19.40;99.90;;;;;;5039961;28;20250;-51
2022/08/14 04:08:08;;;;;;;10.95;4.72;;;19.40;99.90;;;;;;5041099;28;20354;-52
2022/08/14 04:10:35;;;;;;;6.43;4.40;;;19.30;99.90;;;;;;5033893;28;20170;-52
2022/08/14 04:13:01;;;;;;;9.82;4.47;;;19.30;99.90;;;;;;5040934;28;20207;-54
2022/08/14 04:15:27;;;;;;;7.53;4.38;;;19.30;99.90;;;;;;5052389;28;20170;-51
2022/08/14 04:17:53;;;;;;;13.23;3.90;;;19.20;99.90;;;;;;5052510;28;20486;-52
2022/08/14 04:20:20;;;;;;;6.13;4.07;;;19.20;99.90;;;;;;5053290;28;20181;-52
2022/08/14 04:22:49;;;;;;;11.40;4.50;;;19.10;99.90;;;;;;5052845;28;20169;-52
2022/08/14 04:25:15;;;;;;;9.57;4.18;;;19.10;99.90;;;;;;5052146;28;20188;-52
2022/08/14 04:27:41;;;;;;;18.65;4.75;;;19.10;99.90;;;;;;5051039;28;20267;-52
2022/08/14 04:30:07;;;;;;;8.95;4.50;;;19.10;99.90;;;;;;5052190;28;22857;-52
2022/08/14 04:32:32;;;;;;;16.52;4.97;;;19.10;99.90;;;;;;5052689;28;20220;-51
2022/08/14 04:34:59;;;;;;;20.35;4.80;;;19.20;99.90;;;;;;5052388;28;20227;-51
2022/08/14 04:45:39;;;;;;;14.13;4.38;;;19.00;99.90;;;;;;5053296;28;20658;-51
2022/08/14 04:48:13;;;;;;;12.88;5.10;;;19.00;99.90;;;;;;5050510;28;20224;-52
2022/08/14 04:50:48;;;;;;;9.88;5.00;;;19.00;99.90;;;;;;5052362;28;20238;-52
2022/08/14 04:53:19;;;;;;;10.80;5.13;;;19.00;99.90;;;;;;5052811;28;20161;-52
2022/08/14 04:55:47;;;;;;;9.20;4.63;;;19.00;99.90;;;;;;5033060;28;20174;-50
2022/08/14 04:58:42;;;;;;;9.48;4.93;;;19.10;99.90;;;;;;5045533;28;20181;-51
2022/08/14 05:01:09;;;;;;;10.52;4.18;;;19.10;99.90;;;;;;5037147;28;20204;-51
2022/08/14 05:03:36;;;;;;;7.55;3.78;;;19.10;99.90;;;;;;5050109;28;20564;-51
2022/08/14 05:06:04;;;;;;;6.63;3.58;;;19.10;99.90;;;;;;5051885;28;20177;-50
2022/08/14 05:08:31;;;;;;;12.38;3.97;;;19.10;99.90;;;;;;5050846;28;20213;-51
2022/08/14 05:11:01;;;;;;;19.50;4.53;;;19.10;99.90;;;;;;5052964;28;20227;-50
2022/08/14 05:13:29;;;;;;;22.75;4.78;;;19.10;99.90;;;;;;5050821;28;20220;-51
2022/08/14 05:15:57;;;;;;;11.90;4.40;;;19.10;99.90;;;;;;5032724;28;20273;-50
2022/08/14 05:18:27;;;;;;;11.43;4.68;;;19.00;99.90;;;;;;5042601;28;20219;-52
2022/08/14 05:20:54;;;;;;;11.82;4.00;;;19.00;99.90;;;;;;5051113;28;20184;-51
2022/08/14 05:23:23;;;;;;;8.43;4.03;;;19.00;99.90;;;;;;5051635;28;20256;-51
2022/08/14 05:25:53;;;;;;;11.50;4.18;;;19.00;99.90;;;;;;5051884;28;20208;-51
2022/08/14 05:28:24;;;;;;;8.43;3.88;;;19.00;99.90;;;;;;5050636;28;20220;-52
2022/08/14 05:30:54;;;;;;;6.60;3.90;;;19.00;99.90;;;;;;5050398;28;21470;-52
2022/08/14 05:33:21;;;;;;;11.60;4.50;;;19.10;99.90;;;;;;5052344;28;20261;-51
2022/08/14 05:35:47;;;;;;;14.27;4.57;;;19.10;99.90;;;;;;5052095;28;20178;-52
2022/08/14 05:38:15;;;;;;;16.77;4.40;;;19.00;99.90;;;;;;5051400;28;20197;-50
2022/08/14 05:40:43;;;;;;;13.98;3.92;;;19.00;99.90;;;;;;5050527;28;20227;-53
2022/08/14 05:43:09;;;;;;;10.40;4.38;;;19.00;99.90;;;;;;5051256;28;20690;-51
2022/08/14 05:45:35;;;;;;;19.73;4.68;;;19.10;99.90;;;;;;5051243;28;20190;-51
2022/08/14 05:48:02;;;;;;;28.55;4.90;;;19.10;99.90;;;;;;5042947;28;20227;-52
2022/08/14 05:50:28;;;;;;;15.52;4.18;;;19.20;99.90;;;;;;5051540;28;20177;-52
2022/08/14 05:52:54;;;;;;;25.10;4.38;;;19.10;99.90;;;;;;5051427;28;20169;-52
2022/08/14 05:55:20;;;;;;;8.32;3.67;;;19.10;99.90;;;;;;5051027;28;20268;-52
2022/08/14 05:57:49;;;;;;;9.38;3.85;;;19.10;99.90;;;;;;5050213;28;20234;-52
2022/08/14 06:00:17;;;;;;;5.53;3.92;;;19.20;99.90;;;;;;5050400;28;20169;-53
2022/08/14 06:02:43;;;;;;;11.35;4.10;;;19.20;99.90;;;;;;5049270;28;20647;-52
2022/08/14 06:05:09;;;;;;;8.90;4.35;;;19.30;99.90;;;;;;5051598;28;20188;-51
2022/08/14 06:07:36;;;;;;;11.73;3.80;;;19.30;99.90;;;;;;5049638;28;20282;-52
2022/08/14 06:10:06;;;;;;;10.05;3.70;;;19.40;99.90;;;;;;5051041;28;20212;-51
2022/08/14 06:12:32;;;;;;;10.15;4.10;;;19.50;99.90;;;;;;5049547;28;20169;-51
2022/08/14 06:14:58;;;;;;;6.40;3.60;;;19.50;99.90;;;;;;5051589;28;20511;-51
2022/08/14 06:17:24;;;;;;;11.68;3.92;;;19.60;99.90;;;;;;5047340;28;20591;-51
2022/08/14 06:19:50;;;;;;;8.40;3.88;;;19.70;99.90;;;;;;5051542;28;20191;-51
2022/08/14 06:22:15;;;;;;;10.43;3.67;;;19.70;99.90;;;;;;5050191;28;20184;-51
2022/08/14 06:24:41;;;;;;;17.23;4.47;;;19.70;99.90;;;;;;5044479;28;20659;-51
2022/08/14 06:27:07;;;;;;;7.95;3.65;;;19.80;99.90;;;;;;5050452;28;20232;-51
2022/08/14 06:29:33;;;;;;;9.80;4.00;;;19.90;99.90;;;;;;5050988;28;20579;-50
2022/08/14 06:31:58;;;;;;;8.38;3.80;;;20.00;99.90;;;;;;5051220;28;20628;-51
2022/08/14 06:34:24;;;;;;;7.90;3.55;;;20.00;99.90;;;;;;5050072;28;20208;-50
2022/08/14 06:36:50;;;;;;;9.02;3.58;;;20.20;99.90;;;;;;5049342;28;20227;-51
2022/08/14 06:39:15;;;;;;;11.90;4.03;;;20.30;99.90;;;;;;5050111;28;20636;-51
2022/08/14 06:41:41;;;;;;;9.15;3.80;;;20.30;99.90;;;;;;5050219;28;20651;-52
2022/08/14 06:44:07;;;;;;;13.38;3.97;;;20.40;99.90;;;;;;5048963;28;20180;-52
2022/08/14 06:46:34;;;;;;;26.20;5.10;;;20.50;99.90;;;;;;5051295;28;20514;-51
2022/08/14 06:48:59;;;;;;;21.48;5.28;;;20.60;99.90;;;;;;5049866;28;20216;-51
2022/08/14 06:51:25;;;;;;;40.42;5.78;;;20.60;99.90;;;;;;5050811;28;20532;-52
2022/08/14 06:53:50;;;;;;;41.67;6.00;;;20.70;99.90;;;;;;5048809;28;20185;-52
2022/08/14 06:56:16;;;;;;;39.10;6.30;;;20.70;99.90;;;;;;5048994;28;20199;-51
2022/08/14 06:58:42;;;;;;;40.13;5.97;;;21.10;99.90;;;;;;5048991;28;20200;-51
2022/08/14 07:06:36;;;;;;;18.98;5.05;;;21.10;99.90;;;;;;5030845;28;20340;-51
2022/08/14 07:09:03;;;;;;;22.95;5.18;;;21.20;99.90;;;;;;5040554;28;20213;-51
2022/08/14 07:11:29;;;;;;;19.58;4.72;;;21.30;99.90;;;;;;5047417;28;20238;-51
2022/08/14 07:13:55;;;;;;;21.42;4.30;;;21.50;99.90;;;;;;5046914;28;20188;-51
2022/08/14 07:16:21;;;;;;;16.80;4.18;;;21.70;99.90;;;;;;5047990;28;20235;-52
2022/08/14 07:18:47;;;;;;;12.68;3.60;;;21.80;99.90;;;;;;5038518;28;20255;-52
2022/08/14 07:21:12;;;;;;;10.25;3.40;;;22.00;99.90;;;;;;5039326;28;20644;-52
2022/08/14 07:23:38;;;;;;;15.35;3.30;;;22.10;99.90;;;;;;5039621;28;20181;-50
2022/08/14 07:26:05;;;;;;;9.00;3.13;;;22.30;99.90;;;;;;5038580;28;20182;-50
2022/08/14 07:28:33;;;;;;;4.47;3.15;;;22.40;99.90;;;;;;5039058;28;20701;-51
2022/08/14 07:31:01;;;;;;;11.85;3.10;;;22.50;99.90;;;;;;5041581;28;20185;-51
2022/08/14 07:33:30;;;;;;;9.48;3.70;;;22.60;99.90;;;;;;5045656;28;20679;-52
2022/08/14 07:36:03;;;;;;;7.13;2.90;;;22.70;99.90;;;;;;5048068;28;20239;-51
2022/08/14 07:38:28;;;;;;;5.07;3.22;;;22.80;99.90;;;;;;5042176;28;20685;-51
2022/08/14 07:40:54;;;;;;;5.03;2.97;;;22.90;99.90;;;;;;5040222;28;20257;-51
2022/08/14 07:43:21;;;;;;;5.85;2.80;;;22.90;99.90;;;;;;5042949;28;20651;-50
2022/08/14 07:45:47;;;;;;;12.88;2.83;;;23.00;99.90;;;;;;5034299;28;20177;-51
2022/08/14 07:48:12;;;;;;;8.27;2.97;;;23.10;99.90;;;;;;5051507;28;20209;-51
2022/08/14 07:50:38;;;;;;;8.65;3.10;;;23.20;99.90;;;;;;5046520;28;20208;-51
2022/08/14 07:53:07;;;;;;;10.88;2.90;;;23.30;99.90;;;;;;5053656;28;20697;-53
2022/08/14 07:55:34;;;;;;;8.68;3.20;;;23.40;99.90;;;;;;5052856;28;20169;-51
2022/08/14 07:58:00;;;;;;;7.35;3.40;;;23.40;99.90;;;;;;5052255;28;20185;-51
2022/08/14 08:00:27;;;;;;;8.15;3.17;;;23.50;99.90;;;;;;5050083;28;20235;-52
2022/08/14 08:02:54;;;;;;;7.95;3.13;;;23.60;99.90;;;;;;5051687;28;20188;-53
2022/08/14 08:05:26;;;;;;;6.90;3.10;;;23.70;99.90;;;;;;5052757;28;20640;-52
2022/08/14 08:07:52;;;;;;;5.82;2.90;;;23.80;99.90;;;;;;5051434;28;20220;-52
2022/08/14 08:10:30;;;;;;;5.70;2.97;;;23.80;99.90;;;;;;5050515;28;20181;-53
2022/08/14 08:13:06;;;;;;;8.40;3.50;;;23.80;99.90;;;;;;5051293;28;20177;-52
2022/08/14 08:15:53;;;;;;;9.10;2.97;;;24.00;99.90;;;;;;5053143;28;20651;-51
2022/08/14 08:18:19;;;;;;;5.70;2.80;;;24.00;99.90;;;;;;5048219;28;20195;-52
2022/08/14 08:20:52;;;;;;;6.18;2.80;;;24.20;99.90;;;;;;5051810;28;20695;-53
2022/08/14 08:23:20;;;;;;;4.35;2.90;;;24.40;99.90;;;;;;5052711;28;20188;-51
2022/08/14 08:25:48;;;;;;;9.32;3.20;;;24.60;99.90;;;;;;5052539;28;20177;-52
2022/08/14 08:28:16;;;;;;;12.82;3.53;;;24.80;99.90;;;;;;5046849;28;20209;-52
2022/08/14 08:30:47;;;;;;;5.30;2.90;;;25.00;99.90;;;;;;5046513;28;20253;-52
2022/08/14 08:33:15;;;;;;;6.13;2.65;;;26.40;99.90;;;;;;5038918;28;20648;-52
2022/08/14 08:35:42;;;;;;;3.78;2.53;;;28.80;99.90;;;;;;5050211;28;20173;-52
2022/08/14 08:38:16;;;;;;;7.75;2.85;;;30.80;99.90;;;;;;5053177;28;20703;-51
2022/08/14 08:40:54;;;;;;;10.70;2.88;;;32.30;99.90;;;;;;5051118;28;20643;-52
2022/08/14 08:43:20;;;;;;;12.77;2.97;;;33.40;99.90;;;;;;5053348;28;20188;-52
2022/08/14 08:45:55;;;;;;;7.75;2.63;;;34.10;99.90;;;;;;5052096;28;20169;-52
2022/08/14 08:48:25;;;;;;;6.47;2.70;;;34.10;99.90;;;;;;5050665;28;20224;-52
2022/08/14 08:50:50;;;;;;;5.32;2.80;;;34.50;99.90;;;;;;5046184;28;20170;-52
2022/08/14 08:53:16;;;;;;;6.60;2.70;;;35.30;99.90;;;;;;5041975;28;20178;-51
2022/08/14 08:55:44;;;;;;;8.18;2.92;;;34.80;99.90;;;;;;5043312;28;20173;-52
2022/08/14 08:58:18;;;;;;;5.38;2.60;;;32.70;99.90;;;;;;5042603;28;20185;-53
2022/08/14 09:00:49;;;;;;;9.82;2.35;;;31.90;99.90;;;;;;5039644;28;20177;-54
2022/08/14 09:03:19;;;;;;;5.05;2.45;;;31.10;99.90;;;;;;5043058;28;20181;-54
2022/08/14 09:06:04;;;;;;;3.42;2.15;;;30.80;99.90;;;;;;5042256;28;20239;-54
2022/08/14 09:08:34;;;;;;;4.38;2.78;;;30.30;99.90;;;;;;5042769;28;20301;-54
2022/08/14 09:11:08;;;;;;;8.48;2.60;;;29.90;99.90;;;;;;5040992;28;20188;-54
2022/08/14 09:13:34;;;;;;;9.10;2.90;;;29.40;99.90;;;;;;5039364;28;20185;-53
2022/08/14 09:16:00;;;;;;;7.90;2.78;;;29.40;99.90;;;;;;5044157;28;20176;-53
2022/08/14 09:18:27;;;;;;;8.57;2.92;;;29.20;99.90;;;;;;5042008;28;20260;-53
2022/08/14 09:20:55;;;;;;;3.67;2.38;;;29.10;99.90;;;;;;5037423;28;20296;-54
2022/08/14 09:23:21;;;;;;;8.43;2.55;;;29.00;99.90;;;;;;5041511;28;20188;-53
2022/08/14 09:25:49;;;;;;;9.15;2.42;;;28.90;99.90;;;;;;5042025;28;20173;-54
2022/08/14 09:28:17;;;;;;;5.38;2.47;;;28.80;99.90;;;;;;5041114;28;20297;-53
2022/08/14 09:30:55;;;;;;;7.45;2.50;;;28.80;99.90;;;;;;5040121;28;20181;-53
2022/08/14 09:33:44;;;;;;;6.10;2.67;;;29.00;99.90;;;;;;5041685;28;20169;-53
2022/08/14 09:36:19;;;;;;;5.03;2.40;;;29.30;99.90;;;;;;5041303;28;20225;-53
2022/08/14 09:39:31;;;;;;;5.63;2.05;;;29.60;99.90;;;;;;5040704;28;20184;-54
2022/08/14 09:42:38;;;;;;;8.70;2.65;;;29.70;99.90;;;;;;4983163;28;20194;-54
2022/08/14 09:45:22;;;;;;;4.45;2.30;;;29.80;99.90;;;;;;4982238;28;20275;-53
2022/08/14 09:47:53;;;;;;;5.88;2.08;;;29.80;99.90;;;;;;5038878;28;20251;-54
2022/08/14 09:50:31;;;;;;;4.53;1.92;;;30.00;99.90;;;;;;5041111;28;20181;-54
2022/08/14 09:53:03;;;;;;;6.07;2.30;;;30.10;99.90;;;;;;5040417;28;20173;-54
2022/08/14 09:55:33;;;;;;;4.53;2.00;;;30.20;99.90;;;;;;5040795;28;20260;-54
2022/08/14 09:58:19;;;;;;;5.25;2.50;;;30.30;99.90;;;;;;5045896;28;21246;-54
2022/08/14 10:00:53;;;;;;;4.05;2.13;;;30.60;99.90;;;;;;5045658;28;20181;-54
2022/08/14 10:03:32;;;;;;;5.07;2.08;;;30.70;99.90;;;;;;5041935;28;20177;-54
2022/08/14 10:06:12;;;;;;;7.03;2.00;;;30.90;99.90;;;;;;5044477;28;20315;-53
2022/08/14 10:08:49;;;;;;;5.85;1.92;;;30.80;99.90;;;;;;5048910;28;20290;-53
2022/08/14 10:11:18;;;;;;;7.45;2.55;;;30.80;99.90;;;;;;5046856;28;20651;-54
2022/08/14 10:13:55;;;;;;;4.90;1.73;;;30.80;99.90;;;;;;5044193;28;20190;-54
2022/08/14 10:16:29;;;;;;;6.55;2.28;;;31.10;99.90;;;;;;5050828;28;20176;-53
2022/08/14 10:19:12;;;;;;;4.63;1.73;;;31.30;99.90;;;;;;5040695;28;20170;-53
2022/08/14 10:21:41;;;;;;;8.00;1.80;;;31.60;99.90;;;;;;5034799;28;20663;-54
2022/08/14 10:24:09;;;;;;;4.60;1.65;;;31.80;99.90;;;;;;5050965;28;20189;-54
2022/08/14 10:26:36;;;;;;;12.65;2.10;;;32.00;99.90;;;;;;5042684;28;20230;-53
2022/08/14 10:29:09;;;;;;;2.60;1.83;;;32.30;99.90;;;;;;5032755;28;20213;-53
2022/08/14 10:31:36;;;;;;;6.63;2.03;;;32.40;99.90;;;;;;5041753;28;20280;-52
2022/08/14 10:34:05;;;;;;;9.80;2.47;;;32.20;99.90;;;;;;5039613;28;20208;-51
2022/08/14 10:36:40;;;;;;;4.28;1.70;;;32.60;99.90;;;;;;5039140;28;20213;-53
2022/08/14 10:39:24;;;;;;;4.97;1.40;;;32.80;99.90;;;;;;5039000;28;20189;-54
2022/08/14 10:42:03;;;;;;;3.28;1.40;;;33.00;99.90;;;;;;5042516;28;20196;-53
2022/08/14 10:44:37;;;;;;;3.22;1.77;;;33.10;99.90;;;;;;5039563;28;20182;-53
2022/08/14 10:47:11;;;;;;;2.25;1.70;;;33.30;99.70;;;;;;5047425;28;20202;-53
2022/08/14 10:49:48;;;;;;;3.85;1.58;;;33.00;97.70;;;;;;5040688;28;20264;-52
2022/08/14 10:52:23;;;;;;;4.82;1.35;;;33.40;98.30;;;;;;5040855;28;20177;-53
2022/08/14 10:54:49;;;;;;;4.63;1.40;;;33.10;96.20;;;;;;5041904;28;20181;-53
2022/08/14 10:57:19;;;;;;;6.93;1.42;;;33.20;96.40;;;;;;5048621;28;20169;-53
2022/08/14 10:59:48;;;;;;;6.60;1.60;;;33.60;97.00;;;;;;5050254;28;20169;-52
2022/08/14 11:02:35;;;;;;;2.58;1.20;;;33.90;97.20;;;;;;5042514;28;20268;-51
2022/08/14 11:05:17;;;;;;;7.10;1.40;;;34.20;95.70;;;;;;5038862;28;20737;-52
2022/08/14 11:07:57;;;;;;;7.82;1.42;;;34.20;95.50;;;;;;5037982;28;20689;-51
2022/08/14 11:10:37;;;;;;;5.95;1.48;;;34.40;95.20;;;;;;5046914;28;20272;-53
2022/08/14 11:13:03;;;;;;;3.83;1.55;;;33.80;95.60;;;;;;5046444;28;20184;-58
2022/08/14 11:15:29;;;;;;;7.80;1.48;;;33.60;94.60;;;;;;5046990;28;20256;-57
2022/08/14 11:17:55;;;;;;;8.30;1.70;;;33.60;94.80;;;;;;5041630;28;20260;-60
2022/08/14 11:20:23;;;;;;;8.02;1.50;;;33.80;95.50;;;;;;5036610;28;20544;-58
2022/08/14 11:22:53;;;;;;;11.02;1.38;;;34.60;96.00;;;;;;5038881;28;20666;-56
2022/08/14 11:25:22;;;;;;;3.38;1.50;;;35.60;95.40;;;;;;5041704;28;20208;-58
2022/08/14 11:27:49;;;;;;;3.53;1.38;;;36.10;93.70;;;;;;5038743;28;20567;-58
2022/08/14 11:30:21;;;;;;;4.07;1.48;;;36.10;94.20;;;;;;5038585;28;20172;-57
2022/08/14 11:32:48;;;;;;;4.78;1.38;;;36.60;92.70;;;;;;5040216;28;20554;-57
2022/08/14 11:35:18;;;;;;;1.70;1.20;;;36.00;92.50;;;;;;5038408;28;20250;-57
2022/08/14 11:37:51;;;;;;;2.85;1.17;;;36.40;92.20;;;;;;5039352;28;20822;-57
2022/08/14 11:40:18;;;;;;;2.95;1.30;;;37.10;91.00;;;;;;5039954;28;20624;-58
2022/08/14 11:42:48;;;;;;;3.95;1.17;;;37.80;90.70;;;;;;5041688;28;20260;-57
2022/08/14 11:45:14;;;;;;;2.08;1.20;;;38.60;90.00;;;;;;5045984;28;20177;-57
2022/08/14 11:47:40;;;;;;;3.97;1.17;;;39.20;87.30;;;;;;5044846;28;20200;-56
2022/08/14 11:50:20;;;;;;;2.35;1.00;;;39.60;85.00;;;;;;5044081;28;21569;-56
2022/08/14 11:52:46;;;;;;;7.00;1.20;;;40.00;84.00;;;;;;5048416;28;20241;-57
2022/08/14 11:55:13;;;;;;;3.05;1.02;;;41.10;82.60;;;;;;5048485;28;20184;-58
2022/08/14 11:57:43;;;;;;;2.30;1.05;;;41.50;80.50;;;;;;5050063;28;20180;-57
2022/08/14 12:00:18;;;;;;;2.22;1.60;;;42.70;80.70;;;;;;5050291;28;20276;-57
2022/08/14 12:02:55;;;;;;;1.98;1.15;;;40.70;77.90;;;;;;5047248;28;20184;-56
2022/08/14 12:05:38;;;;;;;2.45;1.00;;;40.20;77.90;;;;;;5050434;28;20180;-56
2022/08/14 12:08:06;;;;;;;4.10;0.90;;;40.60;77.20;;;;;;5049742;28;20206;-56
2022/08/14 12:10:36;;;;;;;1.75;1.10;;;40.50;75.80;;;;;;5039250;28;20644;-56
2022/08/14 12:13:31;;;;;;;2.42;1.05;;;41.20;78.20;;;;;;5046742;28;20235;-56
2022/08/14 12:16:02;;;;;;;1.48;1.00;;;42.30;74.20;;;;;;5049038;28;20235;-56
2022/08/14 12:18:35;;;;;;;5.53;0.95;;;41.70;72.80;;;;;;5050224;28;20234;-57
2022/08/14 12:21:18;;;;;;;2.08;1.20;;;40.80;72.30;;;;;;5049301;28;20204;-57
2022/08/14 12:23:58;;;;;;;5.88;1.20;;;41.20;72.30;;;;;;5048384;28;20267;-57
2022/08/14 12:26:24;;;;;;;3.67;1.30;;;41.80;70.70;;;;;;5049552;28;20547;-58
2022/08/14 12:28:50;;;;;;;1.58;0.98;;;41.90;71.50;;;;;;5052891;28;20303;-57
2022/08/14 12:31:20;;;;;;;6.10;0.98;;;42.00;68.80;;;;;;5051715;28;20187;-56
2022/08/14 12:34:00;;;;;;;2.72;1.10;;;42.60;69.40;;;;;;5053637;28;20203;-57
2022/08/14 12:36:29;;;;;;;1.38;1.00;;;43.50;69.90;;;;;;5053343;28;20219;-57
2022/08/14 12:38:56;;;;;;;1.80;0.80;;;43.90;70.20;;;;;;5052688;28;20424;-57
2022/08/14 12:41:25;;;;;;;4.82;1.10;;;45.40;68.80;;;;;;5053727;28;20257;-56
2022/08/14 12:44:27;;;;;;;4.53;0.90;;;46.50;68.20;;;;;;5053502;28;20199;-57
2022/08/14 12:47:03;;;;;;;2.53;0.95;;;45.60;63.30;;;;;;5053208;28;20176;-57
2022/08/14 12:49:29;;;;;;;3.58;1.13;;;43.70;64.10;;;;;;5052186;28;20208;-56
2022/08/14 12:52:00;;;;;;;2.10;0.90;;;43.90;66.10;;;;;;5051966;28;20230;-57
2022/08/14 12:54:26;;;;;;;1.35;1.13;;;43.80;65.70;;;;;;5045824;28;20181;-57
2022/08/14 12:57:03;;;;;;;2.72;1.23;;;43.00;62.90;;;;;;5045995;28;20180;-57
2022/08/14 12:59:32;;;;;;;7.05;1.35;;;41.50;63.00;;;;;;5044279;28;21539;-60
2022/08/14 13:01:59;;;;;;;7.22;1.40;;;40.00;63.50;;;;;;5048197;28;20192;-57
2022/08/14 13:04:24;;;;;;;6.63;1.55;;;39.50;63.80;;;;;;5050524;28;20219;-57
2022/08/14 13:06:51;;;;;;;3.58;1.50;;;41.30;65.00;;;;;;5047883;28;20200;-57
2022/08/14 13:09:20;;;;;;;4.85;1.20;;;42.00;64.30;;;;;;5047779;28;20782;-57
2022/08/14 13:11:50;;;;;;;4.05;1.45;;;41.90;63.20;;;;;;5047447;28;20175;-57